Time,TemperatureF,DewpointF,PressureIn,WindDirection,WindDirectionDegrees,WindSpeedMPH,WindSpeedGustMPH,Humidity,HourlyPrecipIn,Conditions,Clouds,dailyrainin,SoftwareType,DateUTC
2013-05-01 00:03:00,53.0,-99.9,30.31,East,93,3.0,4.0,-999,-99.99,,,-99.99,,2013-05-01 04:03:00,
2013-05-01 00:12:00,53.0,-99.9,30.31,East,96,2.0,2.0,-999,-99.99,,,-99.99,,2013-05-01 04:12:00,
2013-05-01 00:23:00,53.0,-99.9,30.31,East,94,3.0,4.0,-999,-99.99,,,-99.99,,2013-05-01 04:23:00,
2013-05-01 00:32:00,53.0,-99.9,30.31,ESE,102,3.0,4.0,-999,-99.99,,,-99.99,,2013-05-01 04:32:00,
2013-05-01 00:43:00,53.0,-99.9,30.31,East,94,2.0,3.0,-999,-99.99,,,-99.99,,2013-05-01 04:43:00,
2013-05-01 00:52:00,53.0,-99.9,30.32,East,96,2.0,3.0,-999,-99.99,,,-99.99,,2013-05-01 04:52:00,
2013-05-01 01:02:00,53.0,-99.9,30.32,East,85,2.0,2.0,-999,-99.99,,,-99.99,,2013-05-01 05:02:00,
2013-05-01 01:12:00,53.0,-99.9,30.32,East,93,3.0,3.0,-999,-99.99,,,-99.99,,2013-05-01 05:12:00,
2013-05-01 01:22:00,52.0,-99.9,30.32,SE,126,1.0,2.0,-999,-99.99,,,-99.99,,2013-05-01 05:22:00,
2013-05-01 01:32:00,52.0,-99.9,30.33,ESE,121,1.0,2.0,-999,-99.99,,,-99.99,,2013-05-01 05:32:00,
2013-05-01 01:42:00,51.0,-99.9,30.32,North,-999,-999.0,-999.0,-999,-99.99,,,-99.99,,2013-05-01 05:42:00,
2013-05-01 01:52:00,51.0,-99.9,30.33,East,91,0.0,1.0,-999,-99.99,,,-99.99,,2013-05-01 05:52:00,
2013-05-01 02:02:00,51.0,-99.9,30.33,East,90,1.0,2.0,-999,-99.99,,,-99.99,,2013-05-01 06:02:00,
2013-05-01 02:12:00,51.0,-99.9,30.33,North,5,1.0,2.0,-999,-99.99,,,-99.99,,2013-05-01 06:12:00,
2013-05-01 02:22:00,51.0,-99.9,30.33,NNE,23,1.0,2.0,-999,-99.99,,,-99.99,,2013-05-01 06:22:00,
2013-05-01 02:32:00,51.0,-99.9,30.33,ENE,62,-999.0,1.0,-999,-99.99,,,-99.99,,2013-05-01 06:32:00,
2013-05-01 02:42:00,50.0,-99.9,30.32,East,95,1.0,1.0,-999,-99.99,,,-99.99,,2013-05-01 06:42:00,
2013-05-01 02:52:00,49.0,-99.9,30.32,ESE,122,1.0,1.0,-999,-99.99,,,-99.99,,2013-05-01 06:52:00,
2013-05-01 03:01:00,49.0,-99.9,30.32,NE,39,1.0,1.0,-999,-99.99,,,-99.99,,2013-05-01 07:01:00,
2013-05-01 03:11:00,49.0,-99.9,30.32,NNW,337,-999.0,1.0,-999,-99.99,,,-99.99,,2013-05-01 07:11:00,
2013-05-01 03:22:00,50.0,-99.9,30.32,NNW,340,2.0,3.0,-999,-99.99,,,-99.99,,2013-05-01 07:22:00,
2013-05-01 03:32:00,50.0,-99.9,30.33,East,89,0.0,1.0,-999,-99.99,,,-99.99,,2013-05-01 07:32:00,
2013-05-01 03:42:00,51.0,-99.9,30.33,NNE,31,2.0,2.0,-999,-99.99,,,-99.99,,2013-05-01 07:42:00,
2013-05-01 03:52:00,50.0,-99.9,30.33,ENE,76,2.0,4.0,-999,-99.99,,,-99.99,,2013-05-01 07:52:00,
2013-05-01 04:02:00,50.0,-99.9,30.33,NE,50,2.0,3.0,-999,-99.99,,,-99.99,,2013-05-01 08:02:00,
2013-05-01 04:12:00,50.0,-99.9,30.34,ESE,109,2.0,2.0,-999,-99.99,,,-99.99,,2013-05-01 08:12:00,
2013-05-01 04:22:00,49.0,-99.9,30.34,East,94,1.0,1.0,-999,-99.99,,,-99.99,,2013-05-01 08:22:00,
2013-05-01 04:32:00,49.0,-99.9,30.35,East,100,1.0,2.0,-999,-99.99,,,-99.99,,2013-05-01 08:32:00,
2013-05-01 04:42:00,49.0,-99.9,30.35,NE,35,1.0,2.0,-999,-99.99,,,-99.99,,2013-05-01 08:42:00,
2013-05-01 04:53:00,49.0,-99.9,30.35,NE,46,2.0,3.0,-999,-99.99,,,-99.99,,2013-05-01 08:53:00,
2013-05-01 05:02:00,49.0,-99.9,30.35,ENE,57,2.0,3.0,-999,-99.99,,,-99.99,,2013-05-01 09:02:00,
2013-05-01 05:12:00,50.0,-99.9,30.35,NE,40,3.0,4.0,-999,-99.99,,,-99.99,,2013-05-01 09:12:00,
2013-05-01 05:22:00,50.0,-99.9,30.35,NNE,32,3.0,4.0,-999,-99.99,,,-99.99,,2013-05-01 09:22:00,
2013-05-01 05:33:00,49.0,-99.9,30.35,NNE,28,4.0,5.0,-999,-99.99,,,-99.99,,2013-05-01 09:33:00,
2013-05-01 05:43:00,49.0,-99.9,30.36,NE,37,3.0,4.0,-999,-99.99,,,-99.99,,2013-05-01 09:43:00,
2013-05-01 05:53:00,49.0,-99.9,30.36,ENE,63,2.0,3.0,-999,-99.99,,,-99.99,,2013-05-01 09:53:00,
2013-05-01 06:03:00,49.0,-99.9,30.36,NE,55,4.0,6.0,-999,-99.99,,,-99.99,,2013-05-01 10:03:00,
2013-05-01 06:12:00,49.0,-99.9,30.36,NE,43,4.0,5.0,-999,-99.99,,,-99.99,,2013-05-01 10:12:00,
2013-05-01 06:22:00,49.0,-99.9,30.37,NE,37,4.0,5.0,-999,-99.99,,,-99.99,,2013-05-01 10:22:00,
2013-05-01 06:33:00,49.0,-99.9,30.37,NNE,27,5.0,6.0,-999,-99.99,,,-99.99,,2013-05-01 10:33:00,
2013-05-01 06:42:00,49.0,-99.9,30.37,NNE,31,5.0,6.0,-999,-99.99,,,-99.99,,2013-05-01 10:42:00,
2013-05-01 06:53:00,49.0,-99.9,30.38,NE,54,4.0,4.0,-999,-99.99,,,-99.99,,2013-05-01 10:53:00,
2013-05-01 07:03:00,49.0,-99.9,30.39,ENE,63,4.0,5.0,-999,-99.99,,,-99.99,,2013-05-01 11:03:00,
2013-05-01 07:11:00,50.0,-99.9,30.39,NE,35,4.0,6.0,-999,-99.99,,,-99.99,,2013-05-01 11:11:00,
2013-05-01 07:22:00,50.0,-99.9,30.39,NNE,24,5.0,6.0,-999,-99.99,,,-99.99,,2013-05-01 11:22:00,
2013-05-01 07:32:00,50.0,-99.9,30.40,NNE,27,4.0,5.0,-999,-99.99,,,-99.99,,2013-05-01 11:32:00,
2013-05-01 07:42:00,51.0,-99.9,30.40,NNE,24,4.0,5.0,-999,-99.99,,,-99.99,,2013-05-01 11:42:00,
2013-05-01 07:52:00,52.0,-99.9,30.40,ENE,62,2.0,3.0,-999,-99.99,,,-99.99,,2013-05-01 11:52:00,
2013-05-01 08:02:00,52.0,-99.9,30.40,ENE,71,2.0,4.0,-999,-99.99,,,-99.99,,2013-05-01 12:02:00,
2013-05-01 08:11:00,53.0,-99.9,30.41,NE,54,2.0,3.0,-999,-99.99,,,-99.99,,2013-05-01 12:11:00,
2013-05-01 08:22:00,53.0,-99.9,30.41,ENE,63,5.0,7.0,-999,-99.99,,,-99.99,,2013-05-01 12:22:00,
2013-05-01 08:32:00,54.0,-99.9,30.41,ENE,66,4.0,7.0,-999,-99.99,,,-99.99,,2013-05-01 12:32:00,
2013-05-01 08:42:00,54.0,-99.9,30.41,ENE,71,4.0,7.0,-999,-99.99,,,-99.99,,2013-05-01 12:42:00,
2013-05-01 08:52:00,54.0,-99.9,30.42,ENE,66,5.0,6.0,-999,-99.99,,,-99.99,,2013-05-01 12:52:00,
2013-05-01 09:02:00,54.0,-99.9,30.42,ENE,64,3.0,5.0,-999,-99.99,,,-99.99,,2013-05-01 13:02:00,
2013-05-01 09:11:00,55.0,-99.9,30.42,NE,45,2.0,4.0,-999,-99.99,,,-99.99,,2013-05-01 13:11:00,
2013-05-01 09:22:00,54.0,-99.9,30.42,NE,37,4.0,5.0,-999,-99.99,,,-99.99,,2013-05-01 13:22:00,
2013-05-01 09:32:00,55.0,-99.9,30.42,NE,35,4.0,7.0,-999,-99.99,,,-99.99,,2013-05-01 13:32:00,
2013-05-01 09:42:00,55.0,-99.9,30.43,ENE,66,4.0,6.0,-999,-99.99,,,-99.99,,2013-05-01 13:42:00,
2013-05-01 09:52:00,56.0,-99.9,30.43,ENE,66,6.0,9.0,-999,-99.99,,,-99.99,,2013-05-01 13:52:00,
2013-05-01 10:02:00,56.0,-99.9,30.42,ENE,63,8.0,10.0,-999,-99.99,,,-99.99,,2013-05-01 14:02:00,
2013-05-01 10:11:00,56.0,-99.9,30.42,ENE,60,7.0,9.0,-999,-99.99,,,-99.99,,2013-05-01 14:11:00,
2013-05-01 10:22:00,57.0,-99.9,30.42,East,81,6.0,9.0,-999,-99.99,,,-99.99,,2013-05-01 14:22:00,
2013-05-01 10:32:00,57.0,-99.9,30.43,East,79,4.0,8.0,-999,-99.99,,,-99.99,,2013-05-01 14:32:00,
2013-05-01 10:42:00,57.0,-99.9,30.43,ENE,68,10.0,15.0,-999,-99.99,,,-99.99,,2013-05-01 14:42:00,
2013-05-01 10:52:00,57.0,-99.9,30.43,ENE,70,8.0,13.0,-999,-99.99,,,-99.99,,2013-05-01 14:52:00,
2013-05-01 11:01:00,57.0,-99.9,30.44,ENE,71,8.0,13.0,-999,-99.99,,,-99.99,,2013-05-01 15:01:00,
2013-05-01 11:12:00,57.0,-99.9,30.44,ENE,63,7.0,11.0,-999,-99.99,,,-99.99,,2013-05-01 15:12:00,
2013-05-01 11:22:00,59.0,-99.9,30.43,ENE,74,7.0,12.0,-999,-99.99,,,-99.99,,2013-05-01 15:22:00,
2013-05-01 11:33:00,59.0,-99.9,30.43,ENE,69,8.0,12.0,-999,-99.99,,,-99.99,,2013-05-01 15:33:00,
2013-05-01 11:43:00,59.0,-99.9,30.43,ENE,72,11.0,17.0,-999,-99.99,,,-99.99,,2013-05-01 15:43:00,
2013-05-01 11:53:00,59.0,-99.9,30.42,ENE,64,7.0,10.0,-999,-99.99,,,-99.99,,2013-05-01 15:53:00,
2013-05-01 12:03:00,60.0,-99.9,30.42,ENE,71,8.0,13.0,-999,-99.99,,,-99.99,,2013-05-01 16:03:00,
2013-05-01 12:12:00,60.0,-99.9,30.42,NE,52,11.0,15.0,-999,-99.99,,,-99.99,,2013-05-01 16:12:00,
2013-05-01 12:22:00,60.0,-99.9,30.42,ENE,64,9.0,13.0,-999,-99.99,,,-99.99,,2013-05-01 16:22:00,
2013-05-01 12:32:00,61.0,-99.9,30.42,ESE,122,8.0,12.0,-999,-99.99,,,-99.99,,2013-05-01 16:32:00,
2013-05-01 12:42:00,60.0,-99.9,30.42,SSE,155,9.0,13.0,-999,-99.99,,,-99.99,,2013-05-01 16:42:00,
2013-05-01 12:53:00,61.0,-99.9,30.43,SE,132,10.0,13.0,-999,-99.99,,,-99.99,,2013-05-01 16:53:00,
2013-05-01 13:02:00,60.0,-99.9,30.42,SE,127,9.0,15.0,-999,-99.99,,,-99.99,,2013-05-01 17:02:00,
2013-05-01 13:12:00,60.0,-99.9,30.43,ESE,118,11.0,17.0,-999,-99.99,,,-99.99,,2013-05-01 17:12:00,
2013-05-01 13:22:00,60.0,-99.9,30.43,SSE,151,11.0,16.0,-999,-99.99,,,-99.99,,2013-05-01 17:22:00,
2013-05-01 13:32:00,61.0,-99.9,30.43,ESE,122,11.0,16.0,-999,-99.99,,,-99.99,,2013-05-01 17:32:00,
2013-05-01 13:42:00,61.0,-99.9,30.43,SE,129,9.0,14.0,-999,-99.99,,,-99.99,,2013-05-01 17:42:00,
2013-05-01 13:52:00,61.0,-99.9,30.43,SE,143,9.0,15.0,-999,-99.99,,,-99.99,,2013-05-01 17:52:00,
2013-05-01 14:02:00,62.0,-99.9,30.43,SE,136,7.0,11.0,-999,-99.99,,,-99.99,,2013-05-01 18:02:00,
2013-05-01 14:12:00,62.0,-99.9,30.42,SSE,147,9.0,17.0,-999,-99.99,,,-99.99,,2013-05-01 18:12:00,
2013-05-01 14:22:00,60.0,-99.9,30.42,SE,137,9.0,13.0,-999,-99.99,,,-99.99,,2013-05-01 18:22:00,
2013-05-01 14:32:00,61.0,-99.9,30.42,ESE,118,7.0,12.0,-999,-99.99,,,-99.99,,2013-05-01 18:32:00,
2013-05-01 14:42:00,60.0,-99.9,30.42,SE,140,11.0,16.0,-999,-99.99,,,-99.99,,2013-05-01 18:42:00,
2013-05-01 14:52:00,60.0,-99.9,30.43,SSE,155,9.0,13.0,-999,-99.99,,,-99.99,,2013-05-01 18:52:00,
2013-05-01 15:02:00,60.0,-99.9,30.42,SE,130,8.0,14.0,-999,-99.99,,,-99.99,,2013-05-01 19:02:00,
2013-05-01 15:12:00,59.0,-99.9,30.42,ESE,121,9.0,15.0,-999,-99.99,,,-99.99,,2013-05-01 19:12:00,
2013-05-01 15:22:00,61.0,-99.9,30.42,SE,145,5.0,12.0,-999,-99.99,,,-99.99,,2013-05-01 19:22:00,
2013-05-01 15:32:00,60.0,-99.9,30.42,SE,144,11.0,19.0,-999,-99.99,,,-99.99,,2013-05-01 19:32:00,
2013-05-01 15:43:00,60.0,-99.9,30.42,SSE,149,8.0,12.0,-999,-99.99,,,-99.99,,2013-05-01 19:43:00,
2013-05-01 15:52:00,60.0,-99.9,30.43,SE,140,8.0,13.0,-999,-99.99,,,-99.99,,2013-05-01 19:52:00,
2013-05-01 16:02:00,60.0,-99.9,30.43,SSE,156,12.0,19.0,-999,-99.99,,,-99.99,,2013-05-01 20:02:00,
2013-05-01 16:11:00,60.0,-99.9,30.43,SE,135,9.0,17.0,-999,-99.99,,,-99.99,,2013-05-01 20:11:00,
2013-05-01 16:22:00,60.0,-99.9,30.42,ESE,119,8.0,14.0,-999,-99.99,,,-99.99,,2013-05-01 20:22:00,
2013-05-01 16:32:00,60.0,-99.9,30.42,SE,139,8.0,14.0,-999,-99.99,,,-99.99,,2013-05-01 20:32:00,
2013-05-01 16:42:00,59.0,-99.9,30.42,ESE,117,10.0,16.0,-999,-99.99,,,-99.99,,2013-05-01 20:42:00,
2013-05-01 16:52:00,59.0,-99.9,30.42,SSE,150,12.0,19.0,-999,-99.99,,,-99.99,,2013-05-01 20:52:00,
2013-05-01 17:01:00,61.0,-99.9,30.42,SE,139,7.0,12.0,-999,-99.99,,,-99.99,,2013-05-01 21:01:00,
2013-05-01 17:11:00,60.0,-99.9,30.42,SSE,148,9.0,15.0,-999,-99.99,,,-99.99,,2013-05-01 21:11:00,
2013-05-01 17:22:00,60.0,-99.9,30.42,SE,135,8.0,12.0,-999,-99.99,,,-99.99,,2013-05-01 21:22:00,
2013-05-01 17:32:00,59.0,-99.9,30.42,SSE,154,8.0,13.0,-999,-99.99,,,-99.99,,2013-05-01 21:32:00,
2013-05-01 17:43:00,59.0,-99.9,30.42,SSE,157,8.0,11.0,-999,-99.99,,,-99.99,,2013-05-01 21:43:00,
2013-05-01 17:53:00,58.0,-99.9,30.43,SE,136,9.0,15.0,-999,-99.99,,,-99.99,,2013-05-01 21:53:00,
2013-05-01 18:03:00,58.0,-99.9,30.43,ESE,119,9.0,12.0,-999,-99.99,,,-99.99,,2013-05-01 22:03:00,
2013-05-01 18:13:00,58.0,-99.9,30.43,SE,128,7.0,13.0,-999,-99.99,,,-99.99,,2013-05-01 22:13:00,
2013-05-01 18:23:00,58.0,-99.9,30.43,SE,125,9.0,11.0,-999,-99.99,,,-99.99,,2013-05-01 22:23:00,
2013-05-01 18:33:00,57.0,-99.9,30.43,ESE,117,8.0,14.0,-999,-99.99,,,-99.99,,2013-05-01 22:33:00,
2013-05-01 18:42:00,57.0,-99.9,30.43,SE,143,9.0,12.0,-999,-99.99,,,-99.99,,2013-05-01 22:42:00,
2013-05-01 18:53:00,57.0,-99.9,30.44,ESE,120,4.0,8.0,-999,-99.99,,,-99.99,,2013-05-01 22:53:00,
2013-05-01 19:02:00,56.0,-99.9,30.44,ESE,102,6.0,10.0,-999,-99.99,,,-99.99,,2013-05-01 23:02:00,
2013-05-01 19:12:00,57.0,-99.9,30.44,SE,137,5.0,9.0,-999,-99.99,,,-99.99,,2013-05-01 23:12:00,
2013-05-01 19:22:00,56.0,-99.9,30.45,SE,127,4.0,6.0,-999,-99.99,,,-99.99,,2013-05-01 23:22:00,
2013-05-01 19:32:00,55.0,-99.9,30.45,SSE,147,7.0,9.0,-999,-99.99,,,-99.99,,2013-05-01 23:32:00,
2013-05-01 19:42:00,55.0,-99.9,30.45,SE,130,4.0,6.0,-999,-99.99,,,-99.99,,2013-05-01 23:42:00,
2013-05-01 19:52:00,55.0,-99.9,30.45,SE,141,6.0,11.0,-999,-99.99,,,-99.99,,2013-05-01 23:52:00,
2013-05-01 20:01:00,55.0,-99.9,30.45,SE,132,3.0,4.0,-999,-99.99,,,-99.99,,2013-05-02 00:01:00,
2013-05-01 20:11:00,55.0,-99.9,30.45,SE,145,4.0,5.0,-999,-99.99,,,-99.99,,2013-05-02 00:11:00,
2013-05-01 20:22:00,54.0,-99.9,30.45,SE,133,3.0,3.0,-999,-99.99,,,-99.99,,2013-05-02 00:22:00,
2013-05-01 20:32:00,54.0,-99.9,30.45,SSE,152,4.0,5.0,-999,-99.99,,,-99.99,,2013-05-02 00:32:00,
2013-05-01 20:42:00,54.0,-99.9,30.45,SE,127,4.0,4.0,-999,-99.99,,,-99.99,,2013-05-02 00:42:00,
2013-05-01 20:52:00,54.0,-99.9,30.46,SE,141,4.0,6.0,-999,-99.99,,,-99.99,,2013-05-02 00:52:00,
2013-05-01 21:01:00,53.0,-99.9,30.45,SE,128,3.0,4.0,-999,-99.99,,,-99.99,,2013-05-02 01:01:00,
2013-05-01 21:11:00,53.0,-99.9,30.46,SSE,148,3.0,4.0,-999,-99.99,,,-99.99,,2013-05-02 01:11:00,
2013-05-01 21:22:00,53.0,-99.9,30.46,SE,139,2.0,4.0,-999,-99.99,,,-99.99,,2013-05-02 01:22:00,
2013-05-01 21:32:00,53.0,-99.9,30.46,ESE,122,2.0,4.0,-999,-99.99,,,-99.99,,2013-05-02 01:32:00,
2013-05-01 21:42:00,53.0,-99.9,30.46,ESE,122,3.0,4.0,-999,-99.99,,,-99.99,,2013-05-02 01:42:00,
2013-05-01 21:52:00,53.0,-99.9,30.47,SSE,150,2.0,4.0,-999,-99.99,,,-99.99,,2013-05-02 01:52:00,
2013-05-01 22:02:00,52.0,-99.9,30.46,SSE,162,2.0,2.0,-999,-99.99,,,-99.99,,2013-05-02 02:02:00,
2013-05-01 22:12:00,52.0,-99.9,30.47,SE,146,1.0,2.0,-999,-99.99,,,-99.99,,2013-05-02 02:12:00,
2013-05-01 22:22:00,52.0,-99.9,30.47,ESE,107,1.0,2.0,-999,-99.99,,,-99.99,,2013-05-02 02:22:00,
2013-05-01 22:32:00,52.0,-99.9,30.47,SE,125,0.0,1.0,-999,-99.99,,,-99.99,,2013-05-02 02:32:00,
2013-05-01 22:42:00,52.0,-99.9,30.47,SE,125,0.0,1.0,-999,-99.99,,,-99.99,,2013-05-02 02:42:00,
2013-05-01 22:52:00,52.0,-99.9,30.47,SE,125,0.0,1.0,-999,-99.99,,,-99.99,,2013-05-02 02:52:00,
2013-05-01 23:01:00,52.0,-99.9,30.47,SSE,147,2.0,2.0,-999,-99.99,,,-99.99,,2013-05-02 03:01:00,
2013-05-01 23:11:00,52.0,-99.9,30.47,South,180,1.0,2.0,-999,-99.99,,,-99.99,,2013-05-02 03:11:00,
2013-05-01 23:22:00,52.0,-99.9,30.47,SSE,149,2.0,2.0,-999,-99.99,,,-99.99,,2013-05-02 03:22:00,
2013-05-01 23:33:00,52.0,-99.9,30.47,SSE,161,1.0,2.0,-999,-99.99,,,-99.99,,2013-05-02 03:33:00,
2013-05-01 23:43:00,52.0,-99.9,30.47,South,170,2.0,2.0,-999,-99.99,,,-99.99,,2013-05-02 03:43:00,
2013-05-01 23:53:00,52.0,-99.9,30.47,SSW,209,0.0,1.0,-999,-99.99,,,-99.99,,2013-05-02 03:53:00,